Time;durP1;ratioP1;P1;durP2;ratioP2;P2;SDS_P1;SDS_P2;PMS_P1;PMS_P2;Temp;Humidity;BMP_temperature;BMP_pressure;BME280_temperature;BME280_humidity;BME280_pressure;Samples;Min_cycle;Max_cycle;Signal;HPM_P1;HPM_P2
2022/01/05 00:01:58;;;;;;;11.40;1.70;;;2.00;99.90;;;;;;4994410;28;20079;-80
2022/01/05 00:04:30;;;;;;;11.18;1.45;;;2.20;99.90;;;;;;5009788;28;20387;-80
2022/01/05 00:07:11;;;;;;;9.48;1.63;;;1.90;99.90;;;;;;5010852;28;20042;-81
2022/01/05 00:09:37;;;;;;;;;;;1.80;99.90;;;;;;4990852;28;20061;-81
2022/01/05 00:12:07;;;;;;;7.60;1.45;;;1.90;99.90;;;;;;4993462;28;19921;-81
2022/01/05 00:14:37;;;;;;;9.85;1.52;;;2.10;99.90;;;;;;5009525;28;20145;-81
2022/01/05 00:17:41;;;;;;;11.77;1.80;;;1.80;99.90;;;;;;4998747;28;20109;-81
2022/01/05 00:20:09;;;;;;;12.10;1.30;;;1.80;99.90;;;;;;5012049;28;20045;-81
2022/01/05 00:22:39;;;;;;;17.38;1.58;;;1.80;99.90;;;;;;5012372;28;20044;-81
2022/01/05 00:25:08;;;;;;;12.70;1.77;;;1.90;99.90;;;;;;5010388;28;20482;-81
2022/01/05 00:27:36;;;;;;;10.25;1.88;;;2.00;99.90;;;;;;4996126;28;20124;-81
2022/01/05 00:30:06;;;;;;;11.25;1.80;;;1.70;99.90;;;;;;4999096;28;20041;-81
2022/01/05 00:32:33;;;;;;;15.05;1.75;;;1.10;99.90;;;;;;5012168;28;20046;-81
2022/01/05 00:35:00;;;;;;;9.25;1.55;;;1.70;99.90;;;;;;4999857;28;20119;-81
2022/01/05 00:37:27;;;;;;;16.35;2.40;;;2.00;99.90;;;;;;4997871;28;20030;-81
2022/01/05 00:39:53;;;;;;;17.85;2.17;;;1.70;99.90;;;;;;5006356;28;20056;-81
2022/01/05 00:42:19;;;;;;;15.68;2.10;;;1.90;99.90;;;;;;4997873;28;20029;-81
2022/01/05 00:44:50;;;;;;;13.98;2.53;;;2.10;99.90;;;;;;4997815;28;20084;-81
2022/01/05 00:47:16;;;;;;;13.25;2.03;;;2.40;99.90;;;;;;4997829;28;20099;-81
2022/01/05 00:49:43;;;;;;;14.85;1.80;;;2.30;99.90;;;;;;4998080;28;20046;-82
2022/01/05 00:52:09;;;;;;;12.85;2.60;;;1.80;99.90;;;;;;4966804;28;20158;-79
2022/01/05 00:54:35;;;;;;;12.88;2.10;;;2.00;99.90;;;;;;4981817;28;20129;-80
2022/01/05 00:57:01;;;;;;;12.55;2.40;;;1.90;99.90;;;;;;4966686;28;20058;-79
2022/01/05 00:59:27;;;;;;;21.65;2.45;;;1.90;99.90;;;;;;4967333;28;20049;-81
2022/01/05 01:01:53;;;;;;;15.48;2.38;;;2.20;99.90;;;;;;4968632;28;20049;-81
2022/01/05 01:04:22;;;;;;;24.92;2.40;;;1.90;99.90;;;;;;4964778;28;20471;-80
2022/01/05 01:06:48;;;;;;;15.48;2.42;;;2.00;99.90;;;;;;4978196;28;20046;-80
2022/01/05 01:09:16;;;;;;;18.10;2.17;;;2.30;99.90;;;;;;4962985;28;20134;-82
2022/01/05 01:11:41;;;;;;;20.70;2.60;;;2.10;99.90;;;;;;4984456;28;20070;-82
2022/01/05 01:14:07;;;;;;;17.67;2.42;;;2.30;99.90;;;;;;4953022;28;20066;-79
2022/01/05 01:16:33;;;;;;;16.33;2.58;;;2.30;99.90;;;;;;4978243;28;20443;-82
2022/01/05 01:18:58;;;;;;;20.00;2.08;;;2.40;99.90;;;;;;4982538;28;20443;-82
2022/01/05 01:21:25;;;;;;;15.43;2.00;;;2.40;99.90;;;;;;4967419;28;20382;-82
2022/01/05 01:23:57;;;;;;;17.23;2.05;;;2.40;99.90;;;;;;4979952;28;20117;-81
2022/01/05 01:26:25;;;;;;;15.32;1.75;;;2.50;99.90;;;;;;4982140;28;20030;-80
2022/01/05 01:28:50;;;;;;;17.85;2.03;;;2.70;99.90;;;;;;4964918;28;20116;-80
2022/01/05 01:31:16;;;;;;;17.88;2.30;;;2.60;99.90;;;;;;4985138;28;20043;-81
2022/01/05 01:33:42;;;;;;;19.15;2.53;;;2.60;99.90;;;;;;4970219;28;20058;-81
2022/01/05 01:36:08;;;;;;;11.35;2.53;;;2.70;99.90;;;;;;4968021;28;20053;-81
2022/01/05 01:38:33;;;;;;;15.18;2.28;;;2.70;99.90;;;;;;4965142;28;20037;-80
2022/01/05 01:41:03;;;;;;;19.52;2.78;;;2.80;99.90;;;;;;4970708;28;20050;-81
2022/01/05 01:43:28;;;;;;;13.55;2.17;;;2.80;99.90;;;;;;4967860;28;20050;-81
2022/01/05 01:45:54;;;;;;;16.85;2.58;;;2.80;99.90;;;;;;4983313;28;20085;-81
2022/01/05 01:48:23;;;;;;;17.77;1.92;;;2.80;99.90;;;;;;4985689;28;20030;-81
2022/01/05 01:50:48;;;;;;;12.45;1.92;;;2.80;99.90;;;;;;4968331;28;20505;-82
2022/01/05 01:53:14;;;;;;;23.15;2.35;;;2.90;99.90;;;;;;4997011;28;20055;-80
2022/01/05 01:55:40;;;;;;;13.88;1.98;;;2.90;99.90;;;;;;5001795;28;20033;-82
2022/01/05 01:58:10;;;;;;;17.25;2.83;;;2.90;99.90;;;;;;5020011;28;20053;-81
2022/01/05 02:00:36;;;;;;;16.27;2.40;;;2.90;99.90;;;;;;5012935;28;20080;-80
2022/01/05 02:03:02;;;;;;;13.68;2.35;;;3.20;99.90;;;;;;5019164;28;20212;-81
2022/01/05 02:05:28;;;;;;;13.45;2.22;;;2.70;99.90;;;;;;5011736;28;20563;-82
2022/01/05 02:07:53;;;;;;;14.27;1.70;;;2.70;99.90;;;;;;5019260;28;20065;-80
2022/01/05 02:10:22;;;;;;;15.40;2.03;;;2.70;99.90;;;;;;4999039;28;20038;-81
2022/01/05 02:12:50;;;;;;;14.02;2.22;;;1.90;99.90;;;;;;5015900;28;20145;-81
2022/01/05 02:15:16;;;;;;;13.75;2.80;;;2.60;99.90;;;;;;5016658;28;20087;-81
2022/01/05 02:18:21;;;;;;;15.35;2.22;;;2.60;99.90;;;;;;5013698;28;20132;-82
2022/01/05 02:20:48;;;;;;;17.95;2.35;;;2.50;99.90;;;;;;5002766;28;20085;-81
2022/01/05 02:23:14;;;;;;;14.98;2.15;;;2.50;99.90;;;;;;5011846;28;20042;-82
2022/01/05 02:25:40;;;;;;;16.70;2.35;;;2.50;99.90;;;;;;5021852;28;20037;-81
2022/01/05 02:28:13;;;;;;;20.08;2.20;;;3.10;99.90;;;;;;4999790;28;20124;-81
2022/01/05 02:30:39;;;;;;;20.17;2.55;;;2.50;99.90;;;;;;5016758;28;20045;-81
2022/01/05 02:33:11;;;;;;;19.45;2.35;;;2.50;99.90;;;;;;5001089;28;20517;-81
2022/01/05 02:35:36;;;;;;;15.40;2.42;;;2.60;99.90;;;;;;5018181;28;20037;-81
2022/01/05 02:38:08;;;;;;;27.10;2.40;;;2.60;99.90;;;;;;4997797;28;20055;-82
2022/01/05 02:40:34;;;;;;;19.63;2.72;;;2.70;99.90;;;;;;5023025;28;20038;-81
2022/01/05 02:43:26;;;;;;;20.90;3.17;;;2.80;99.90;;;;;;5016062;28;20029;-81
2022/01/05 02:45:51;;;;;;;18.02;2.03;;;2.80;99.90;;;;;;5009874;28;20041;-81
2022/01/05 02:48:17;;;;;;;22.10;2.65;;;2.90;99.90;;;;;;5025078;28;20067;-81
2022/01/05 02:50:42;;;;;;;20.88;2.53;;;2.90;99.90;;;;;;5003201;28;20049;-81
2022/01/05 02:53:08;;;;;;;16.58;2.00;;;3.00;99.90;;;;;;5026400;28;20067;-80
2022/01/05 02:55:34;;;;;;;23.20;2.85;;;3.00;99.90;;;;;;5025936;28;20084;-81
2022/01/05 02:58:00;;;;;;;12.70;2.40;;;3.10;99.90;;;;;;5007649;28;20481;-81
2022/01/05 03:00:28;;;;;;;19.50;2.70;;;3.10;99.90;;;;;;5028694;28;20049;-82
2022/01/05 03:02:57;;;;;;;21.42;2.67;;;3.10;99.90;;;;;;5027315;28;20071;-82
2022/01/05 03:11:08;;;;;;;16.33;2.65;;;3.30;99.90;;;;;;4807096;26;20107;-81
2022/01/05 03:13:59;;;;;;;20.52;2.85;;;3.40;99.90;;;;;;5005468;28;20041;-81
2022/01/05 03:17:02;;;;;;;11.43;1.88;;;3.90;99.90;;;;;;4979503;28;20054;-81
2022/01/05 03:20:30;;;;;;;15.60;1.95;;;2.60;99.90;;;;;;4910370;29;20096;-81
2022/01/05 03:23:27;;;;;;;22.20;2.67;;;3.60;99.90;;;;;;4907489;29;20079;-80
2022/01/05 03:26:10;;;;;;;16.08;2.80;;;2.90;99.90;;;;;;4871110;29;20527;-81
2022/01/05 03:29:31;;;;;;;12.93;1.65;;;4.80;99.90;;;;;;4886695;29;20060;-81
2022/01/05 03:33:20;;;;;;;19.48;2.55;;;4.30;99.90;;;;;;4857095;29;21934;-81
2022/01/05 03:36:35;;;;;;;12.20;2.08;;;4.80;99.90;;;;;;4817407;29;20187;-81
2022/01/05 03:39:57;;;;;;;;;;;;;;;;;;;;;
2022/01/05 03:50:29;;;;;;;;;;;;;;;;;;;;;
2022/01/05 04:07:24;;;;;;;14.32;2.13;;;3.50;99.90;;;;;;1254501;26;20047;-82
2022/01/05 04:10:01;;;;;;;14.07;2.33;;;3.60;99.90;;;;;;4944581;29;20089;-81
2022/01/05 04:13:10;;;;;;;9.30;1.52;;;3.50;99.90;;;;;;4895517;29;20068;-82
2022/01/05 04:20:10;;;;;;;;;;;;;;;;;;;;;
2022/01/05 04:24:14;;;;;;;12.23;1.85;;;3.10;99.90;;;;;;4833222;29;20085;-83
2022/01/05 04:26:57;;;;;;;14.20;1.98;;;4.60;99.90;;;;;;4769859;30;20046;-82
2022/01/05 04:36:39;;;;;;;7.95;1.73;;;3.00;99.90;;;;;;4760276;30;20048;-83
2022/01/05 04:39:11;;;;;;;15.77;1.85;;;3.40;99.90;;;;;;4763591;30;20162;-82
2022/01/05 04:41:37;;;;;;;17.33;1.75;;;3.40;99.90;;;;;;4762884;30;20071;-82
2022/01/05 04:44:03;;;;;;;8.27;1.38;;;3.40;99.90;;;;;;4771165;29;20050;-81
2022/01/05 04:46:28;;;;;;;15.77;1.70;;;3.40;99.90;;;;;;4830164;29;20054;-81
2022/01/05 04:48:54;;;;;;;13.00;1.88;;;3.30;99.90;;;;;;4829422;29;20056;-82
2022/01/05 04:51:31;;;;;;;11.70;1.83;;;3.40;99.90;;;;;;4855866;29;20483;-82
2022/01/05 04:53:57;;;;;;;19.35;2.28;;;3.30;99.90;;;;;;4858011;29;20465;-81
2022/01/05 04:56:22;;;;;;;14.55;2.63;;;3.40;99.90;;;;;;4841385;29;20059;-81
2022/01/05 04:58:48;;;;;;;22.48;3.85;;;3.40;99.90;;;;;;4851295;28;20128;-83
2022/01/05 05:01:17;;;;;;;16.23;2.35;;;3.50;99.90;;;;;;4991781;28;20077;-82
2022/01/05 05:03:45;;;;;;;17.17;2.58;;;3.40;99.90;;;;;;4993062;28;20034;-81
2022/01/05 05:06:11;;;;;;;21.17;2.83;;;3.40;99.90;;;;;;4977393;28;20138;-82
2022/01/05 05:08:37;;;;;;;18.98;2.40;;;3.40;99.90;;;;;;5001045;28;20160;-81
2022/01/05 05:11:12;;;;;;;21.00;2.97;;;3.40;99.90;;;;;;4977566;28;20340;-81
2022/01/05 05:13:37;;;;;;;;;;;3.40;99.90;;;;;;4965590;28;20462;-82
2022/01/05 05:16:24;;;;;;;11.98;2.17;;;3.50;99.90;;;;;;5006883;28;19929;-81
2022/01/05 05:18:50;;;;;;;21.63;3.17;;;3.90;99.90;;;;;;5025848;28;20500;-81
2022/01/05 05:21:25;;;;;;;15.98;2.25;;;3.70;99.90;;;;;;5022497;28;20328;-82
2022/01/05 05:23:57;;;;;;;20.88;2.55;;;3.70;99.90;;;;;;4997936;28;20450;-81
2022/01/05 05:26:40;;;;;;;17.95;2.25;;;4.00;99.90;;;;;;4998172;28;20456;-81
2022/01/05 05:29:09;;;;;;;16.90;2.35;;;3.90;99.90;;;;;;4984809;28;20041;-82
2022/01/05 05:31:42;;;;;;;;;;;3.90;99.90;;;;;;5029015;28;20041;-81
2022/01/05 05:34:11;;;;;;;14.40;2.03;;;4.00;99.90;;;;;;4980535;28;19980;-81
2022/01/05 05:36:41;;;;;;;21.85;2.17;;;3.90;99.90;;;;;;5002883;28;20056;-82
2022/01/05 05:39:10;;;;;;;16.90;2.53;;;4.00;99.90;;;;;;5014393;28;20038;-82
2022/01/05 05:41:39;;;;;;;16.77;2.25;;;4.00;99.90;;;;;;4977654;28;20520;-81
2022/01/05 05:44:13;;;;;;;11.40;1.90;;;4.00;99.90;;;;;;5013759;28;20045;-83
2022/01/05 05:46:42;;;;;;;21.45;2.17;;;4.00;99.90;;;;;;5013140;28;20120;-82
2022/01/05 05:49:08;;;;;;;15.63;3.10;;;3.90;99.90;;;;;;5029613;28;20042;-84
2022/01/05 05:51:34;;;;;;;23.08;2.67;;;3.80;99.90;;;;;;5000466;28;20125;-83
2022/01/05 05:54:00;;;;;;;17.63;2.53;;;3.90;99.90;;;;;;5011343;28;20128;-81
2022/01/05 05:56:27;;;;;;;22.15;2.13;;;3.80;99.90;;;;;;5014382;28;20026;-81
2022/01/05 05:59:01;;;;;;;19.70;2.85;;;4.30;99.90;;;;;;5010682;28;20038;-81
2022/01/05 06:01:29;;;;;;;11.95;2.33;;;4.20;99.90;;;;;;5007605;28;20077;-81
2022/01/05 06:19:38;;;;;;;11.70;2.22;;;3.10;99.90;;;;;;4955979;28;20039;-82
2022/01/05 06:22:07;;;;;;;13.27;2.30;;;3.90;99.90;;;;;;4944765;28;20050;-82
2022/01/05 06:24:34;;;;;;;16.33;2.03;;;3.90;99.90;;;;;;4968703;28;20411;-82
2022/01/05 06:27:01;;;;;;;13.50;2.10;;;4.10;99.90;;;;;;4940459;28;20181;-83
2022/01/05 06:29:27;;;;;;;11.23;1.67;;;4.00;99.90;;;;;;4949774;28;20162;-82
2022/01/05 06:31:56;;;;;;;21.27;2.50;;;4.10;99.90;;;;;;4963371;28;20063;-82
2022/01/05 06:34:43;;;;;;;19.15;3.05;;;4.10;99.90;;;;;;4938317;28;20051;-83
2022/01/05 06:37:55;;;;;;;16.60;2.28;;;4.10;99.90;;;;;;4959340;28;20090;-83
2022/01/05 06:41:03;;;;;;;26.10;2.72;;;3.80;99.90;;;;;;4983071;28;20047;-84
2022/01/05 06:44:48;;;;;;;22.75;2.40;;;4.20;99.90;;;;;;4907430;29;20488;-81
2022/01/05 06:48:08;;;;;;;19.75;2.38;;;4.30;99.90;;;;;;4897487;29;20052;-87
2022/01/05 06:50:36;;;;;;;13.02;1.90;;;4.30;99.90;;;;;;4800834;29;20046;-80
2022/01/05 06:53:11;;;;;;;19.60;2.08;;;4.60;99.90;;;;;;4858280;29;20060;-81
2022/01/05 06:55:37;;;;;;;16.58;2.40;;;4.00;99.90;;;;;;4886348;29;20480;-82
2022/01/05 06:58:16;;;;;;;25.92;2.00;;;4.40;99.90;;;;;;4871317;29;20145;-82
2022/01/05 07:00:50;;;;;;;23.38;1.63;;;4.70;99.90;;;;;;4874567;29;20385;-82
2022/01/05 07:03:16;;;;;;;20.27;2.03;;;4.50;99.90;;;;;;4858575;29;20052;-83
2022/01/05 07:08:20;;;;;;;15.90;1.60;;;4.30;99.90;;;;;;5146464;23;20486;-81
2022/01/05 07:10:46;;;;;;;11.88;1.45;;;4.40;99.90;;;;;;4991537;28;20132;-80
2022/01/05 07:13:11;;;;;;;8.38;1.20;;;4.30;99.90;;;;;;4997262;28;20124;-80
2022/01/05 07:15:37;;;;;;;17.58;2.00;;;4.30;99.90;;;;;;5001567;28;20056;-80
2022/01/05 07:18:06;;;;;;;16.30;1.52;;;4.20;99.90;;;;;;5005555;28;20119;-81
2022/01/05 07:20:32;;;;;;;12.82;1.95;;;4.30;99.90;;;;;;5002597;28;20042;-83
2022/01/05 07:22:57;;;;;;;21.83;1.77;;;5.10;99.90;;;;;;4990614;28;20123;-82
2022/01/05 07:25:23;;;;;;;13.32;1.52;;;5.40;99.90;;;;;;4986984;28;21216;-80
2022/01/05 07:27:49;;;;;;;7.53;1.40;;;4.20;99.90;;;;;;5003558;28;20046;-82
2022/01/05 07:30:16;;;;;;;14.45;1.98;;;4.40;99.90;;;;;;4982480;28;20092;-82
2022/01/05 07:32:44;;;;;;;12.63;1.75;;;4.70;99.90;;;;;;5002347;28;20512;-79
2022/01/05 07:35:16;;;;;;;19.08;2.65;;;4.50;99.90;;;;;;4998340;28;20506;-79
2022/01/05 07:45:37;;;;;;;15.00;1.65;;;4.10;99.90;;;;;;4946602;28;20051;-82
2022/01/05 07:48:04;;;;;;;14.57;1.75;;;4.90;99.90;;;;;;4945060;28;20050;-82
2022/01/05 07:50:38;;;;;;;15.18;2.13;;;4.30;99.90;;;;;;4942906;28;20075;-81
2022/01/05 07:56:39;;;;;;;13.98;2.13;;;4.20;99.90;;;;;;4869231;29;20052;-80
2022/01/05 07:59:11;;;;;;;16.70;2.00;;;5.60;99.90;;;;;;4849915;29;20052;-81
2022/01/05 08:01:36;;;;;;;12.10;1.40;;;3.60;99.90;;;;;;4840294;29;20445;-82
2022/01/05 08:04:02;;;;;;;15.70;1.95;;;4.50;99.90;;;;;;4865434;29;20045;-79
2022/01/05 08:06:31;;;;;;;15.02;1.85;;;4.50;99.90;;;;;;4851169;29;20276;-78
2022/01/05 08:09:02;;;;;;;14.00;1.67;;;4.50;99.90;;;;;;4840041;29;20112;-78
2022/01/05 08:11:31;;;;;;;18.35;1.83;;;4.50;99.90;;;;;;4853853;29;20416;-80
2022/01/05 08:14:09;;;;;;;15.40;1.58;;;4.50;99.90;;;;;;4876248;29;20075;-88
2022/01/05 08:16:36;;;;;;;12.45;1.90;;;4.60;99.90;;;;;;4860227;29;20615;-81
2022/01/05 08:19:01;;;;;;;20.77;1.70;;;5.70;99.90;;;;;;4903414;29;20047;-81
2022/01/05 08:21:27;;;;;;;20.42;1.60;;;4.60;99.90;;;;;;4904838;29;20066;-81
2022/01/05 08:23:53;;;;;;;17.80;2.15;;;4.60;99.90;;;;;;4921729;29;20059;-81
2022/01/05 08:26:18;;;;;;;9.23;1.40;;;4.70;99.90;;;;;;4916350;29;20130;-81
2022/01/05 08:28:44;;;;;;;14.65;1.50;;;4.70;99.90;;;;;;4910793;29;20086;-81
2022/01/05 08:31:10;;;;;;;16.80;1.95;;;4.90;99.90;;;;;;4908388;29;20162;-81
2022/01/05 08:33:35;;;;;;;11.55;1.20;;;4.90;99.90;;;;;;4943435;28;20055;-81
2022/01/05 08:36:02;;;;;;;14.30;1.90;;;5.00;99.90;;;;;;4964866;28;20049;-81
2022/01/05 08:38:28;;;;;;;17.35;1.90;;;5.10;99.90;;;;;;4948710;28;20387;-80
2022/01/05 08:40:54;;;;;;;23.52;2.15;;;5.20;99.90;;;;;;4964770;28;20467;-80
2022/01/05 08:43:20;;;;;;;19.60;2.25;;;5.10;99.90;;;;;;4964259;28;20046;-81
2022/01/05 08:45:47;;;;;;;28.83;2.80;;;5.20;99.90;;;;;;4957181;28;20045;-81
2022/01/05 08:48:14;;;;;;;19.98;2.25;;;5.60;99.90;;;;;;4964226;28;20089;-80
2022/01/05 08:50:40;;;;;;;19.55;2.75;;;5.60;99.90;;;;;;4960795;28;20043;-81
2022/01/05 08:53:07;;;;;;;25.27;4.05;;;5.40;99.90;;;;;;4969691;28;20058;-81
2022/01/05 08:55:39;;;;;;;26.73;3.30;;;5.30;99.90;;;;;;4960746;28;20198;-81
2022/01/05 08:58:10;;;;;;;31.80;2.97;;;5.70;99.90;;;;;;4963160;28;20109;-81
2022/01/05 09:00:48;;;;;;;22.80;2.88;;;5.30;99.90;;;;;;4968926;28;20046;-82
2022/01/05 09:03:17;;;;;;;27.05;2.75;;;6.00;99.90;;;;;;4947184;28;20042;-82
2022/01/05 09:05:44;;;;;;;32.55;2.35;;;6.10;99.90;;;;;;4964568;28;20121;-80
2022/01/05 09:08:10;;;;;;;15.88;2.35;;;5.40;99.90;;;;;;4968125;28;20045;-80
2022/01/05 09:10:36;;;;;;;22.63;2.78;;;5.40;99.90;;;;;;4984809;28;20046;-80
2022/01/05 09:13:02;;;;;;;21.85;2.17;;;5.60;99.90;;;;;;4988942;28;20377;-79
2022/01/05 09:15:29;;;;;;;22.15;2.53;;;5.40;99.90;;;;;;4982450;28;20049;-80
2022/01/05 09:17:55;;;;;;;21.40;2.28;;;5.40;99.90;;;;;;4988388;28;20060;-79
2022/01/05 09:20:21;;;;;;;17.63;2.30;;;5.60;99.90;;;;;;4989065;28;20046;-79
2022/01/05 09:22:47;;;;;;;22.77;1.95;;;5.30;99.90;;;;;;4983989;28;20141;-80
2022/01/05 09:25:14;;;;;;;15.32;1.80;;;5.30;99.90;;;;;;4990545;28;20062;-81
2022/01/05 09:27:41;;;;;;;11.43;1.42;;;5.30;99.90;;;;;;4989012;28;20046;-81
2022/01/05 09:30:09;;;;;;;13.00;1.55;;;5.30;99.90;;;;;;4983509;28;20120;-81
2022/01/05 09:32:36;;;;;;;15.60;1.80;;;5.30;99.90;;;;;;4980700;28;20081;-81
2022/01/05 09:35:04;;;;;;;16.55;2.08;;;5.30;99.90;;;;;;4970281;28;20054;-82
2022/01/05 09:37:34;;;;;;;22.70;2.28;;;5.30;99.90;;;;;;4967911;28;20065;-82
2022/01/05 09:42:44;;;;;;;15.57;2.08;;;5.50;99.90;;;;;;4983884;28;20053;-80
2022/01/05 09:45:22;;;;;;;16.40;1.92;;;5.60;99.90;;;;;;4963702;28;20483;-84
2022/01/05 09:48:12;;;;;;;25.00;2.42;;;5.70;99.90;;;;;;4982693;28;20414;-82
2022/01/05 09:50:44;;;;;;;17.58;2.72;;;5.80;99.90;;;;;;5005988;28;20173;-82
2022/01/05 09:53:13;;;;;;;17.52;2.03;;;5.90;99.90;;;;;;4983046;28;20398;-80
2022/01/05 09:55:42;;;;;;;20.17;3.45;;;6.00;99.90;;;;;;4964901;28;20041;-82
2022/01/05 09:58:08;;;;;;;19.40;3.40;;;6.70;99.90;;;;;;4970584;28;20057;-82
2022/01/05 10:00:33;;;;;;;17.80;2.30;;;6.10;99.90;;;;;;4950709;28;20046;-82
2022/01/05 10:02:59;;;;;;;21.63;2.50;;;6.20;99.90;;;;;;4946597;28;20560;-82
2022/01/05 10:05:25;;;;;;;18.90;2.28;;;6.70;99.90;;;;;;4945530;28;20046;-82
2022/01/05 10:07:50;;;;;;;16.60;2.55;;;6.40;99.90;;;;;;4949539;28;20474;-83
2022/01/05 10:10:16;;;;;;;26.83;2.13;;;6.40;99.90;;;;;;4944760;28;20046;-84
2022/01/05 10:12:42;;;;;;;26.98;3.53;;;6.70;99.90;;;;;;4945539;28;20043;-83
2022/01/05 10:15:07;;;;;;;17.77;2.72;;;6.40;99.90;;;;;;4943732;28;20071;-83
2022/01/05 10:17:36;;;;;;;17.65;2.63;;;6.40;99.90;;;;;;4935324;28;20130;-83
2022/01/05 10:20:10;;;;;;;17.02;2.40;;;6.50;99.90;;;;;;4934909;28;20404;-83
2022/01/05 10:22:40;;;;;;;16.35;2.10;;;6.40;99.90;;;;;;4945287;28;20046;-83
2022/01/05 10:25:23;;;;;;;23.83;2.80;;;6.50;99.90;;;;;;4941599;28;20310;-83
2022/01/05 10:28:00;;;;;;;19.52;2.15;;;6.40;99.90;;;;;;4928812;28;20035;-83
2022/01/05 10:30:41;;;;;;;28.73;3.25;;;6.40;99.90;;;;;;4951324;28;20119;-81
2022/01/05 10:33:09;;;;;;;19.08;2.25;;;6.50;99.90;;;;;;5000030;28;20057;-81
2022/01/05 10:35:35;;;;;;;18.85;3.03;;;6.80;99.90;;;;;;4993032;28;20073;-81
2022/01/05 10:38:09;;;;;;;27.10;2.50;;;6.50;99.90;;;;;;4997300;28;20070;-81
2022/01/05 10:40:37;;;;;;;23.42;2.88;;;6.60;99.90;;;;;;4984378;28;20076;-80
2022/01/05 10:43:12;;;;;;;25.70;3.38;;;6.70;99.90;;;;;;4985095;28;20085;-82
2022/01/05 10:45:50;;;;;;;29.75;3.08;;;6.80;99.90;;;;;;4980216;28;20057;-82
2022/01/05 10:48:18;;;;;;;19.98;3.08;;;6.90;99.90;;;;;;4983966;28;20058;-81
2022/01/05 10:50:46;;;;;;;20.95;2.80;;;6.80;99.90;;;;;;4970646;28;20116;-82
2022/01/05 10:53:21;;;;;;;25.70;3.67;;;6.90;99.90;;;;;;4985016;28;20095;-81
2022/01/05 10:55:47;;;;;;;26.77;3.70;;;6.90;99.90;;;;;;4983290;28;20387;-82
2022/01/05 10:58:15;;;;;;;30.65;4.38;;;7.00;99.90;;;;;;4981301;28;20117;-81
2022/01/05 11:00:52;;;;;;;28.60;3.33;;;7.00;99.90;;;;;;4981590;28;20108;-82
2022/01/05 11:03:41;;;;;;;33.72;4.07;;;7.10;99.90;;;;;;4965318;28;20053;-81
2022/01/05 11:06:33;;;;;;;23.88;3.15;;;7.80;99.90;;;;;;4987667;28;20424;-81
2022/01/05 11:09:05;;;;;;;26.50;3.28;;;6.70;99.90;;;;;;4969552;28;20501;-80
2022/01/05 11:15:31;;;;;;;23.38;2.83;;;7.10;99.90;;;;;;4982979;28;20054;-80
2022/01/05 11:18:14;;;;;;;31.45;3.20;;;7.10;99.90;;;;;;4967832;28;20038;-80
2022/01/05 11:21:04;;;;;;;36.38;4.10;;;6.70;99.90;;;;;;4981515;28;20120;-79
2022/01/05 11:23:35;;;;;;;28.67;3.63;;;7.30;99.90;;;;;;4977288;28;20042;-81
2022/01/05 11:26:01;;;;;;;15.30;2.30;;;7.40;99.90;;;;;;4986107;28;20042;-81
2022/01/05 11:28:29;;;;;;;24.80;3.38;;;7.60;99.90;;;;;;4999781;28;20084;-81
2022/01/05 11:30:58;;;;;;;25.63;3.28;;;8.00;99.90;;;;;;4979207;28;20132;-81
2022/01/05 11:33:24;;;;;;;31.10;3.75;;;8.30;99.90;;;;;;4984658;28;20155;-80
2022/01/05 11:35:50;;;;;;;30.10;3.40;;;7.60;99.90;;;;;;4976482;28;20042;-81
2022/01/05 11:38:17;;;;;;;26.75;3.53;;;7.90;99.90;;;;;;4979854;28;20129;-78
2022/01/05 11:40:51;;;;;;;31.92;4.45;;;7.50;99.90;;;;;;4980141;28;20085;-78
2022/01/05 11:43:28;;;;;;;33.58;3.97;;;7.60;99.90;;;;;;4974297;28;20045;-80
2022/01/05 11:45:54;;;;;;;23.25;2.95;;;8.00;99.90;;;;;;4946556;28;20133;-78
2022/01/05 11:49:01;;;;;;;28.92;4.00;;;7.80;99.90;;;;;;4980269;28;20041;-81
2022/01/05 11:51:55;;;;;;;31.75;3.97;;;7.80;99.90;;;;;;4961293;28;20388;-81
2022/01/05 11:54:22;;;;;;;22.45;3.63;;;7.90;99.90;;;;;;4974039;28;20452;-81
2022/01/05 11:56:53;;;;;;;30.90;3.80;;;7.90;99.90;;;;;;4971155;28;20134;-80
2022/01/05 11:59:36;;;;;;;33.70;3.33;;;8.40;99.90;;;;;;4984408;28;20046;-81
2022/01/05 12:02:18;;;;;;;18.77;2.45;;;7.90;99.90;;;;;;4963350;28;20043;-80
2022/01/05 12:04:59;;;;;;;36.13;3.67;;;8.00;99.90;;;;;;4978173;28;20038;-80
2022/01/05 12:07:46;;;;;;;22.30;2.97;;;7.90;99.90;;;;;;4977788;28;20035;-82
2022/01/05 12:10:21;;;;;;;20.55;2.92;;;7.90;99.90;;;;;;4980243;28;20401;-81
2022/01/05 12:12:58;;;;;;;;;;;8.00;99.90;;;;;;4987753;28;20050;-81
2022/01/05 12:15:38;;;;;;;15.80;2.08;;;8.00;99.90;;;;;;4999215;28;19918;-82
2022/01/05 12:18:05;;;;;;;17.92;2.55;;;8.70;99.90;;;;;;4995493;28;20137;-82
2022/01/05 12:20:39;;;;;;;15.73;2.15;;;8.20;99.90;;;;;;4976948;28;20434;-82
2022/01/05 12:23:26;;;;;;;13.35;1.92;;;8.60;99.90;;;;;;5008023;28;20042;-82
2022/01/05 12:26:04;;;;;;;18.33;2.50;;;7.70;99.90;;;;;;5000153;28;20034;-82
2022/01/05 12:28:32;;;;;;;20.15;3.05;;;7.50;99.90;;;;;;5000163;28;20046;-82
2022/01/05 12:30:58;;;;;;;20.52;3.10;;;7.50;99.90;;;;;;4970731;28;20121;-82
2022/01/05 12:33:25;;;;;;;16.10;2.13;;;7.40;99.90;;;;;;5000060;28;20529;-82
2022/01/05 12:35:57;;;;;;;21.20;3.05;;;8.20;99.90;;;;;;4984467;28;20133;-82
2022/01/05 12:38:31;;;;;;;30.38;3.15;;;7.60;99.90;;;;;;4999613;28;20125;-82
2022/01/05 12:40:57;;;;;;;28.35;3.03;;;8.30;99.90;;;;;;5001404;28;20038;-82
2022/01/05 12:43:32;;;;;;;13.93;2.40;;;7.90;99.90;;;;;;4969631;28;20426;-81
2022/01/05 12:46:05;;;;;;;19.55;2.22;;;8.60;99.90;;;;;;5000438;28;20046;-81
2022/01/05 12:48:37;;;;;;;26.00;3.22;;;7.50;99.90;;;;;;4966494;28;20149;-81
2022/01/05 12:51:18;;;;;;;29.73;3.83;;;8.30;99.90;;;;;;4967917;28;20050;-81
2022/01/05 12:54:00;;;;;;;30.88;3.33;;;7.30;99.90;;;;;;4962834;28;20358;-81
2022/01/05 12:56:30;;;;;;;21.73;2.70;;;7.90;99.90;;;;;;4961924;28;20512;-83
2022/01/05 12:58:57;;;;;;;9.25;1.75;;;7.90;99.90;;;;;;4999690;28;20062;-81
2022/01/05 13:01:24;;;;;;;26.90;3.67;;;7.20;99.90;;;;;;4970140;28;20141;-82
2022/01/05 13:03:52;;;;;;;19.05;2.50;;;7.60;99.90;;;;;;4992147;28;20144;-81
2022/01/05 13:06:29;;;;;;;33.85;3.67;;;7.20;99.90;;;;;;4968269;28;20057;-81
2022/01/05 13:09:15;;;;;;;26.13;2.85;;;8.00;99.90;;;;;;4984597;28;20117;-80
2022/01/05 13:11:42;;;;;;;24.63;3.17;;;7.40;99.90;;;;;;4971183;28;20081;-81
2022/01/05 13:14:20;;;;;;;17.83;2.80;;;7.30;99.90;;;;;;4964462;28;20050;-79
2022/01/05 13:16:52;;;;;;;26.23;4.10;;;7.30;99.90;;;;;;5005105;28;20054;-78
2022/01/05 13:19:58;;;;;;;22.48;3.05;;;7.30;99.90;;;;;;4990187;28;20077;-79
2022/01/05 13:22:29;;;;;;;27.85;3.35;;;7.40;99.90;;;;;;4966564;28;20050;-81
2022/01/05 13:25:16;;;;;;;31.80;4.18;;;7.60;99.90;;;;;;4960849;28;20046;-80
2022/01/05 13:27:48;;;;;;;27.15;3.33;;;7.70;99.90;;;;;;4965350;28;20069;-80
2022/01/05 13:30:25;;;;;;;30.25;4.47;;;7.80;99.90;;;;;;4988499;28;20077;-82
2022/01/05 13:33:26;;;;;;;22.35;3.50;;;7.60;99.90;;;;;;5005187;28;20370;-77
2022/01/05 13:36:36;;;;;;;12.48;2.25;;;7.60;99.90;;;;;;4945588;28;20065;-81
2022/01/05 13:39:01;;;;;;;20.15;3.10;;;7.40;99.90;;;;;;4906845;29;20052;-80
2022/01/05 13:41:32;;;;;;;18.70;2.60;;;7.10;99.90;;;;;;4907843;29;20410;-82
2022/01/05 13:43:58;;;;;;;19.25;2.13;;;6.90;99.90;;;;;;4876432;29;20040;-82
2022/01/05 13:46:39;;;;;;;12.48;2.10;;;6.80;99.90;;;;;;4889577;29;20066;-81
2022/01/05 13:49:15;;;;;;;20.30;2.35;;;6.80;99.90;;;;;;4893311;29;20380;-82
2022/01/05 13:51:41;;;;;;;15.68;2.67;;;6.70;99.90;;;;;;4892349;29;20067;-79
2022/01/05 13:54:09;;;;;;;20.98;3.00;;;6.70;99.90;;;;;;4872736;29;20127;-79
2022/01/05 13:56:41;;;;;;;18.33;1.98;;;6.70;99.90;;;;;;4890805;29;20159;-80
2022/01/05 13:59:08;;;;;;;28.13;2.90;;;6.70;99.90;;;;;;4875446;29;20049;-78
2022/01/05 14:01:34;;;;;;;19.13;2.65;;;6.70;99.90;;;;;;4887151;29;20091;-79
2022/01/05 14:04:39;;;;;;;23.13;3.70;;;6.60;99.90;;;;;;4902706;29;20079;-83
2022/01/05 14:07:07;;;;;;;12.98;2.63;;;6.60;99.90;;;;;;4900654;29;20106;-77
2022/01/05 14:09:33;;;;;;;18.92;2.13;;;7.10;99.90;;;;;;4891893;29;20048;-81
2022/01/05 14:11:59;;;;;;;17.65;2.83;;;6.70;99.90;;;;;;4914732;28;20039;-79
2022/01/05 14:14:25;;;;;;;12.55;2.63;;;6.80;99.90;;;;;;4988011;28;20486;-82
2022/01/05 14:16:51;;;;;;;23.27;2.47;;;7.00;99.90;;;;;;4967738;28;20070;-77
2022/01/05 14:19:34;;;;;;;18.55;2.63;;;6.80;99.90;;;;;;4980927;28;20072;-77
2022/01/05 14:22:06;;;;;;;18.65;2.22;;;6.80;99.90;;;;;;4983029;28;20133;-80
2022/01/05 14:24:37;;;;;;;22.40;2.85;;;6.80;99.90;;;;;;4979336;28;20059;-79
2022/01/05 14:27:04;;;;;;;16.40;2.97;;;6.70;99.90;;;;;;4965332;28;20498;-80
2022/01/05 14:29:30;;;;;;;25.90;2.97;;;6.70;99.90;;;;;;4980048;28;20047;-77
2022/01/05 14:32:06;;;;;;;36.10;3.30;;;6.80;99.90;;;;;;4982608;28;20539;-78
2022/01/05 14:34:39;;;;;;;28.60;3.58;;;6.80;99.90;;;;;;4972243;28;20495;-77
2022/01/05 14:37:09;;;;;;;36.72;4.40;;;6.80;99.90;;;;;;4984116;28;20383;-78
2022/01/05 14:39:38;;;;;;;26.17;3.72;;;6.90;99.90;;;;;;4980011;28;20104;-77